createdAt,value
2022-08-28T00:01:41.745Z,8.98
2022-08-28T00:04:08.453Z,12.43
2022-08-28T00:06:39.701Z,11.38
2022-08-28T00:09:07.954Z,9.88
2022-08-28T00:11:38.364Z,9.80
2022-08-28T00:14:08.128Z,14.45
2022-08-28T00:16:35.734Z,13.68
2022-08-28T00:19:02.735Z,13.02
2022-08-28T00:21:29.788Z,10.00
2022-08-28T00:23:56.357Z,10.82
2022-08-28T00:26:41.589Z,15.10
2022-08-28T00:29:14.603Z,11.95
2022-08-28T00:31:41.342Z,11.18
2022-08-28T00:34:09.468Z,9.73
2022-08-28T00:36:37.350Z,10.93
2022-08-28T00:39:05.750Z,9.77
2022-08-28T00:41:35.510Z,11.35
2022-08-28T00:44:30.140Z,10.35
2022-08-28T00:46:59.083Z,12.07
2022-08-28T00:49:29.382Z,11.80
2022-08-28T00:52:11.803Z,13.65
2022-08-28T00:54:45.697Z,15.40
2022-08-28T00:57:28.137Z,12.15
2022-08-28T00:59:54.796Z,8.23
2022-08-28T01:02:21.562Z,10.98
2022-08-28T01:04:49.254Z,14.70
2022-08-28T01:07:16.374Z,9.18
2022-08-28T01:09:47.451Z,14.27
2022-08-28T01:12:19.485Z,9.70
2022-08-28T01:14:48.613Z,8.80
2022-08-28T01:17:17.487Z,15.38
2022-08-28T01:19:56.387Z,12.32
2022-08-28T01:22:40.101Z,10.05
2022-08-28T01:25:12.438Z,13.02
2022-08-28T01:27:41.870Z,10.10
2022-08-28T01:30:15.927Z,11.13
2022-08-28T01:32:47.293Z,9.10
2022-08-28T01:35:21.526Z,11.13
2022-08-28T01:37:49.163Z,7.43
2022-08-28T01:40:22.865Z,15.40
2022-08-28T01:42:50.244Z,10.93
2022-08-28T01:45:19.693Z,8.93
2022-08-28T01:47:47.185Z,13.38
2022-08-28T01:50:17.492Z,12.07
2022-08-28T01:52:44.161Z,12.15
2022-08-28T01:55:11.373Z,9.98
2022-08-28T01:57:50.781Z,14.70
2022-08-28T02:00:21.280Z,12.90
2022-08-28T02:02:51.473Z,11.07
2022-08-28T02:05:19.363Z,9.02
2022-08-28T02:07:46.361Z,9.88
2022-08-28T02:10:12.948Z,8.32
2022-08-28T02:12:39.559Z,9.90
2022-08-28T02:15:07.705Z,16.85
2022-08-28T02:17:34.681Z,11.60
2022-08-28T02:20:01.562Z,14.02
2022-08-28T02:22:28.229Z,9.60
2022-08-28T02:24:54.889Z,13.55
2022-08-28T02:27:21.514Z,20.02
2022-08-28T02:29:48.469Z,14.25
2022-08-28T02:32:15.133Z,13.45
2022-08-28T02:34:43.526Z,10.68
2022-08-28T02:37:13.242Z,10.20
2022-08-28T02:39:40.286Z,11.18
2022-08-28T02:42:06.997Z,14.15
2022-08-28T02:44:34.098Z,18.33
2022-08-28T02:47:00.969Z,10.75
2022-08-28T02:49:31.328Z,11.13
2022-08-28T02:52:04.314Z,9.23
2022-08-28T02:54:30.993Z,9.75
2022-08-28T02:56:58.580Z,15.15
2022-08-28T02:59:25.324Z,14.50
2022-08-28T03:01:53.399Z,11.55
2022-08-28T03:04:20.019Z,11.90
2022-08-28T03:06:46.672Z,14.43
2022-08-28T03:09:13.235Z,9.60
2022-08-28T03:11:41.177Z,14.65
2022-08-28T03:14:08.097Z,10.85
2022-08-28T03:16:36.263Z,10.18
2022-08-28T03:19:03.913Z,14.27
2022-08-28T03:21:30.472Z,11.55
2022-08-28T03:23:57.221Z,14.57
2022-08-28T03:26:24.342Z,8.27
2022-08-28T03:28:53.273Z,12.80
2022-08-28T03:31:23.513Z,10.50
2022-08-28T03:33:50.538Z,15.27
2022-08-28T03:36:25.519Z,11.05
2022-08-28T03:38:56.954Z,10.40
2022-08-28T03:41:26.906Z,12.63
2022-08-28T03:43:53.528Z,9.57
2022-08-28T03:46:23.625Z,15.45
2022-08-28T03:48:52.703Z,14.75
2022-08-28T03:51:29.408Z,12.25
2022-08-28T03:53:58.424Z,13.35
2022-08-28T03:56:27.167Z,13.00
2022-08-28T03:58:57.393Z,10.70
2022-08-28T04:01:24.910Z,14.25
2022-08-28T04:03:51.609Z,17.55
2022-08-28T04:06:19.775Z,11.15
2022-08-28T04:08:49.544Z,14.85
2022-08-28T04:11:17.329Z,12.60
2022-08-28T04:13:45.145Z,12.00
2022-08-28T04:16:16.617Z,10.90
2022-08-28T04:18:44.082Z,14.38
2022-08-28T04:21:14.373Z,13.82
2022-08-28T04:23:43.276Z,11.75
2022-08-28T04:26:13.129Z,14.57
2022-08-28T04:28:40.936Z,12.70
2022-08-28T04:31:08.222Z,12.77
2022-08-28T04:33:35.985Z,11.13
2022-08-28T04:36:09.213Z,16.25
2022-08-28T04:38:41.586Z,12.63
2022-08-28T04:41:12.834Z,11.52
2022-08-28T04:43:39.699Z,12.32
2022-08-28T04:46:08.815Z,13.85
2022-08-28T04:48:36.268Z,13.40
2022-08-28T04:51:05.672Z,13.80
2022-08-28T04:53:32.941Z,13.48
2022-08-28T04:56:02.435Z,15.10
2022-08-28T04:58:34.244Z,9.40
2022-08-28T05:01:13.109Z,8.73
2022-08-28T05:03:40.004Z,15.20
2022-08-28T05:06:07.273Z,14.70
2022-08-28T05:08:34.597Z,10.77
2022-08-28T05:11:33.147Z,11.70
2022-08-28T05:14:04.310Z,13.73
2022-08-28T05:16:31.888Z,15.65
2022-08-28T05:19:03.144Z,12.70
2022-08-28T05:21:29.848Z,11.30
2022-08-28T05:23:58.031Z,11.98
2022-08-28T05:26:27.053Z,11.82
2022-08-28T05:28:56.641Z,16.30
2022-08-28T05:31:24.392Z,15.00
2022-08-28T05:33:52.649Z,16.65
2022-08-28T05:36:22.544Z,9.00
2022-08-28T05:38:51.362Z,13.13
2022-08-28T05:41:24.514Z,13.88
2022-08-28T05:43:53.954Z,15.05
2022-08-28T05:46:22.276Z,10.50
2022-08-28T05:48:49.567Z,9.52
2022-08-28T05:51:20.060Z,14.27
2022-08-28T05:53:49.938Z,10.02
2022-08-28T05:56:23.620Z,16.48
2022-08-28T06:01:24.261Z,14.60
2022-08-28T06:03:57.788Z,10.55
2022-08-28T06:06:26.058Z,11.68
2022-08-28T06:08:58.549Z,12.15
2022-08-28T06:11:31.149Z,9.15
2022-08-28T06:14:03.284Z,8.10
2022-08-28T06:16:32.976Z,9.55
2022-08-28T06:19:00.912Z,11.45
2022-08-28T06:21:28.456Z,9.70
2022-08-28T06:23:55.236Z,9.07
2022-08-28T06:26:22.401Z,14.05
2022-08-28T06:28:49.117Z,11.65
2022-08-28T06:31:23.442Z,10.70
2022-08-28T06:33:56.130Z,8.07
2022-08-28T06:36:24.728Z,10.85
2022-08-28T06:38:51.460Z,15.15
2022-08-28T06:41:18.812Z,11.73
2022-08-28T06:43:49.547Z,12.93
2022-08-28T06:46:19.999Z,7.82
2022-08-28T06:48:47.114Z,7.50
2022-08-28T06:51:14.733Z,7.88
2022-08-28T06:53:43.718Z,12.40
2022-08-28T06:56:26.477Z,11.18
2022-08-28T06:58:56.649Z,8.95
2022-08-28T07:01:30.102Z,10.57
2022-08-28T07:04:01.293Z,8.02
2022-08-28T07:06:32.277Z,9.45
2022-08-28T07:08:58.867Z,12.77
2022-08-28T07:11:29.298Z,13.10
2022-08-28T07:13:57.113Z,6.80
2022-08-28T07:16:27.515Z,6.70
2022-08-28T07:18:57.372Z,12.25
2022-08-28T07:21:25.566Z,9.38
2022-08-28T07:23:52.310Z,14.38
2022-08-28T07:26:23.269Z,9.05
2022-08-28T07:28:51.307Z,7.53
2022-08-28T07:31:26.750Z,10.25
2022-08-28T07:33:55.045Z,12.57
2022-08-28T07:36:29.550Z,8.85
2022-08-28T07:38:59.464Z,6.50
2022-08-28T07:41:32.013Z,9.98
2022-08-28T07:44:18.278Z,13.07
2022-08-28T07:46:45.710Z,6.80
2022-08-28T07:49:16.964Z,6.72
2022-08-28T07:51:43.647Z,8.77
2022-08-28T07:54:17.592Z,5.82
2022-08-28T07:56:46.076Z,7.68
2022-08-28T07:59:16.641Z,6.32
2022-08-28T08:01:49.071Z,7.22
2022-08-28T08:04:17.227Z,8.40
2022-08-28T08:06:44.381Z,9.02
2022-08-28T08:09:13.782Z,8.00
2022-08-28T08:11:40.874Z,8.63
2022-08-28T08:14:07.564Z,7.28
2022-08-28T08:16:38.642Z,5.30
2022-08-28T08:19:06.461Z,8.27
2022-08-28T08:21:33.185Z,7.45
2022-08-28T08:24:03.034Z,9.80
2022-08-28T08:26:29.738Z,5.15
2022-08-28T08:28:57.180Z,7.80
2022-08-28T08:31:27.566Z,9.35
2022-08-28T08:33:57.874Z,5.70
2022-08-28T08:36:26.523Z,11.15
2022-08-28T08:38:59.162Z,5.97
2022-08-28T08:41:48.552Z,5.93
2022-08-28T08:44:15.085Z,6.72
2022-08-28T08:46:52.779Z,5.88
2022-08-28T08:49:25.952Z,7.05
2022-08-28T08:52:26.998Z,9.05
2022-08-28T08:55:10.330Z,6.45
2022-08-28T08:57:44.390Z,7.13
2022-08-28T09:00:17.743Z,6.72
2022-08-28T09:03:02.638Z,6.15
2022-08-28T09:05:42.478Z,8.50
2022-08-28T09:08:17.752Z,7.68
2022-08-28T09:10:55.024Z,6.78
2022-08-28T09:13:32.084Z,4.72
2022-08-28T09:16:02.297Z,7.57
2022-08-28T09:18:34.341Z,7.30
2022-08-28T09:21:01.155Z,5.22
2022-08-28T09:23:29.870Z,6.20
2022-08-28T09:26:03.053Z,8.05
2022-08-28T09:28:36.113Z,4.95
2022-08-28T09:31:34.418Z,4.60
2022-08-28T09:34:35.480Z,8.52
2022-08-28T09:37:08.604Z,6.07
2022-08-28T09:39:38.225Z,8.05
2022-08-28T09:42:32.725Z,5.28
2022-08-28T09:45:13.793Z,10.60
2022-08-28T09:47:51.449Z,8.07
2022-08-28T09:50:32.115Z,8.18
2022-08-28T09:53:20.606Z,6.00
2022-08-28T09:56:05.866Z,7.72
2022-08-28T09:58:42.449Z,7.93
2022-08-28T10:01:18.200Z,4.93
2022-08-28T10:04:15.397Z,3.65
2022-08-28T10:06:48.860Z,6.30
2022-08-28T10:12:04.461Z,7.57
2022-08-28T10:14:46.624Z,7.20
2022-08-28T10:17:32.192Z,8.45
2022-08-28T10:20:03.692Z,5.72
2022-08-28T10:22:44.295Z,6.95
2022-08-28T10:25:22.634Z,6.70
2022-08-28T10:28:05.403Z,8.85
2022-08-28T10:30:39.239Z,6.30
2022-08-28T10:33:13.888Z,4.13
2022-08-28T10:35:51.689Z,5.10
2022-08-28T10:38:27.348Z,4.32
2022-08-28T10:41:23.301Z,5.47
2022-08-28T10:43:53.099Z,8.23
2022-08-28T10:46:29.752Z,6.10
2022-08-28T10:49:02.061Z,4.65
2022-08-28T10:51:35.453Z,5.70
2022-08-28T10:54:07.761Z,7.00
2022-08-28T10:56:43.922Z,6.85
2022-08-28T10:59:10.514Z,5.72
2022-08-28T11:01:41.879Z,6.57
2022-08-28T11:04:23.443Z,3.88
2022-08-28T11:06:56.611Z,7.05
2022-08-28T11:09:36.787Z,6.35
2022-08-28T11:12:10.055Z,5.65
2022-08-28T11:14:48.541Z,4.80
2022-08-28T11:17:25.455Z,9.95
2022-08-28T11:20:14.089Z,7.38
2022-08-28T11:22:46.937Z,4.78
2022-08-28T11:25:26.601Z,8.57
2022-08-28T11:28:22.392Z,6.47
2022-08-28T11:31:10.482Z,6.32
2022-08-28T11:33:52.919Z,8.05
2022-08-28T11:36:22.574Z,6.07
2022-08-28T11:38:52.145Z,6.30
2022-08-28T11:41:24.376Z,4.65
2022-08-28T11:43:52.507Z,4.80
2022-08-28T11:46:32.851Z,6.50
2022-08-28T11:49:03.269Z,6.15
2022-08-28T11:51:49.734Z,6.30
2022-08-28T11:54:27.524Z,4.93
2022-08-28T11:57:03.504Z,7.63
2022-08-28T11:59:40.029Z,5.40
2022-08-28T12:02:40.960Z,5.65
2022-08-28T12:05:11.452Z,5.40
2022-08-28T12:07:44.483Z,4.05
2022-08-28T12:10:20.661Z,6.47
2022-08-28T12:12:47.235Z,6.50
2022-08-28T12:15:33.389Z,7.03
2022-08-28T12:18:06.464Z,6.38
2022-08-28T12:20:51.280Z,3.90
2022-08-28T12:23:44.431Z,5.32
2022-08-28T12:26:22.366Z,6.25
2022-08-28T12:28:55.992Z,7.32
2022-08-28T12:31:56.206Z,8.00
2022-08-28T12:34:38.118Z,6.10
2022-08-28T12:37:21.397Z,3.72
2022-08-28T12:39:48.085Z,5.00
2022-08-28T12:42:18.890Z,6.22
2022-08-28T12:44:47.038Z,6.28
2022-08-28T12:47:17.577Z,8.02
2022-08-28T12:49:44.755Z,6.53
2022-08-28T12:52:21.283Z,5.45
2022-08-28T12:54:55.097Z,4.50
2022-08-28T12:57:25.162Z,6.80
2022-08-28T12:59:54.501Z,7.45
2022-08-28T13:02:26.102Z,6.85
2022-08-28T13:04:55.594Z,6.15
2022-08-28T13:07:36.741Z,4.63
2022-08-28T13:10:17.781Z,4.88
2022-08-28T13:12:54.986Z,6.68
2022-08-28T13:15:52.584Z,4.40
2022-08-28T13:18:42.813Z,3.60
2022-08-28T13:21:25.542Z,3.15
2022-08-28T13:24:27.165Z,6.68
2022-08-28T13:27:17.899Z,4.97
2022-08-28T13:30:08.061Z,4.30
2022-08-28T13:32:39.324Z,6.30
2022-08-28T13:35:12.827Z,5.18
2022-08-28T13:40:19.781Z,3.58
2022-08-28T13:43:06.866Z,4.40
2022-08-28T13:45:42.342Z,5.45
2022-08-28T13:48:16.269Z,6.25
2022-08-28T13:50:45.704Z,6.40
2022-08-28T13:53:15.269Z,6.70
2022-08-28T13:55:42.026Z,3.92
2022-08-28T13:58:08.685Z,3.50
2022-08-28T14:00:39.884Z,4.82
2022-08-28T14:03:26.193Z,5.55
2022-08-28T14:05:55.268Z,4.90
2022-08-28T14:08:22.179Z,6.22
2022-08-28T14:10:49.003Z,4.07
2022-08-28T14:13:15.864Z,7.70
2022-08-28T14:15:42.483Z,4.82
2022-08-28T14:18:09.413Z,4.72
2022-08-28T14:20:38.224Z,4.18
2022-08-28T14:23:05.035Z,6.22
2022-08-28T14:25:37.069Z,5.40
2022-08-28T14:28:05.801Z,3.40
2022-08-28T14:30:32.668Z,3.60
2022-08-28T14:32:59.235Z,6.30
2022-08-28T14:35:26.608Z,5.03
2022-08-28T14:37:53.221Z,7.45
2022-08-28T14:40:20.853Z,2.58
2022-08-28T14:42:47.583Z,9.00
2022-08-28T14:45:14.273Z,6.50
2022-08-28T14:47:40.897Z,15.30
2022-08-28T14:50:08.183Z,3.53
2022-08-28T14:52:35.124Z,4.82
2022-08-28T14:55:02.384Z,6.68
2022-08-28T14:57:29.254Z,9.25
2022-08-28T14:59:56.073Z,6.75
2022-08-28T15:02:22.701Z,3.47
2022-08-28T15:04:50.808Z,7.30
2022-08-28T15:07:17.698Z,7.63
2022-08-28T15:09:44.261Z,7.03
2022-08-28T15:12:11.358Z,4.90
2022-08-28T15:14:38.179Z,4.65
2022-08-28T15:17:05.753Z,5.40
2022-08-28T15:19:33.010Z,8.40
2022-08-28T15:22:00.254Z,6.40
2022-08-28T15:24:31.393Z,9.35
2022-08-28T15:26:59.858Z,8.10
2022-08-28T15:29:28.109Z,5.45
2022-08-28T15:31:55.277Z,3.22
2022-08-28T15:34:25.288Z,5.82
2022-08-28T15:36:55.095Z,5.68
2022-08-28T15:39:46.445Z,7.50
2022-08-28T15:42:13.906Z,6.72
2022-08-28T15:44:40.951Z,6.95
2022-08-28T15:47:09.055Z,5.85
2022-08-28T15:49:43.679Z,6.28
2022-08-28T15:52:19.469Z,7.18
2022-08-28T15:54:47.086Z,6.18
2022-08-28T15:57:13.966Z,5.82
2022-08-28T15:59:49.994Z,8.60
2022-08-28T16:02:22.409Z,8.15
2022-08-28T16:04:49.582Z,6.18
2022-08-28T16:07:18.566Z,6.63
2022-08-28T16:09:45.457Z,7.18
2022-08-28T16:12:12.262Z,4.97
2022-08-28T16:14:39.500Z,5.18
2022-08-28T16:17:10.821Z,6.13
2022-08-28T16:19:41.714Z,4.95
2022-08-28T16:22:10.166Z,6.97
2022-08-28T16:24:37.704Z,5.47
2022-08-28T16:27:07.849Z,5.85
2022-08-28T16:29:37.862Z,6.90
2022-08-28T16:32:08.280Z,6.70
2022-08-28T16:34:35.138Z,7.03
2022-08-28T16:37:03.713Z,7.22
2022-08-28T16:39:30.605Z,9.05
2022-08-28T16:41:57.505Z,7.65
2022-08-28T16:44:26.170Z,8.15
2022-08-28T16:46:53.729Z,5.57
2022-08-28T16:49:23.956Z,6.70
2022-08-28T16:51:50.864Z,6.18
2022-08-28T16:54:18.249Z,5.93
2022-08-28T16:56:46.330Z,8.98
2022-08-28T16:59:16.547Z,4.68
2022-08-28T17:01:43.471Z,7.88
2022-08-28T17:04:10.521Z,9.93
2022-08-28T17:06:37.106Z,5.30
2022-08-28T17:09:04.196Z,5.90
2022-08-28T17:11:31.009Z,7.10
2022-08-28T17:13:58.710Z,5.85
2022-08-28T17:16:31.382Z,6.25
2022-08-28T17:19:01.657Z,8.15
2022-08-28T17:21:46.977Z,6.53
2022-08-28T17:24:13.893Z,12.82
2022-08-28T17:26:42.312Z,9.48
2022-08-28T17:29:09.363Z,5.05
2022-08-28T17:31:39.078Z,8.07
2022-08-28T17:34:07.313Z,7.25
2022-08-28T17:36:37.709Z,10.40
2022-08-28T17:39:08.954Z,7.93
2022-08-28T17:41:35.654Z,10.30
2022-08-28T17:44:03.431Z,6.82
2022-08-28T17:46:32.906Z,6.90
2022-08-28T17:49:03.566Z,7.90
2022-08-28T17:51:42.297Z,7.35
2022-08-28T17:54:17.725Z,10.15
2022-08-28T17:56:46.254Z,6.85
2022-08-28T17:59:13.219Z,7.18
2022-08-28T18:01:41.880Z,9.32
2022-08-28T18:04:09.008Z,10.32
2022-08-28T18:06:37.111Z,8.57
2022-08-28T18:09:05.081Z,7.78
2022-08-28T18:11:31.956Z,6.88
2022-08-28T18:14:01.063Z,5.47
2022-08-28T18:16:31.915Z,7.63
2022-08-28T18:19:00.342Z,5.50
2022-08-28T18:21:28.264Z,7.07
2022-08-28T18:23:55.042Z,9.82
2022-08-28T18:26:23.188Z,8.07
2022-08-28T18:28:50.843Z,8.43
2022-08-28T18:31:18.085Z,7.97
2022-08-28T18:33:45.034Z,7.97
2022-08-28T18:36:13.914Z,9.88
2022-08-28T18:38:42.349Z,9.82
2022-08-28T18:41:10.065Z,10.98
2022-08-28T18:43:37.234Z,9.60
2022-08-28T18:46:05.930Z,8.50
2022-08-28T18:48:33.077Z,10.57
2022-08-28T18:50:59.712Z,10.30
2022-08-28T18:53:27.901Z,10.32
2022-08-28T18:55:55.645Z,7.85
2022-08-28T18:58:24.422Z,10.63
2022-08-28T19:00:51.537Z,7.88
2022-08-28T19:03:18.413Z,11.57
2022-08-28T19:05:48.513Z,8.70
2022-08-28T19:08:15.379Z,8.90
2022-08-28T19:10:42.203Z,9.73
2022-08-28T19:13:09.124Z,8.90
2022-08-28T19:15:35.973Z,9.07
2022-08-28T19:18:03.118Z,8.07
2022-08-28T19:20:30.483Z,9.32
2022-08-28T19:22:58.288Z,7.07
2022-08-28T19:25:28.247Z,10.40
2022-08-28T19:27:59.326Z,8.93
2022-08-28T19:30:28.390Z,6.70
2022-08-28T19:32:55.207Z,11.57
2022-08-28T19:35:24.901Z,6.90
2022-08-28T19:37:54.372Z,8.13
2022-08-28T19:40:22.026Z,14.07
2022-08-28T19:42:49.998Z,8.02
2022-08-28T19:45:17.885Z,5.85
2022-08-28T19:47:45.334Z,6.68
2022-08-28T19:50:14.403Z,7.43
2022-08-28T19:52:43.009Z,12.32
2022-08-28T19:55:18.224Z,6.15
2022-08-28T19:57:46.813Z,8.73
2022-08-28T20:00:17.659Z,7.93
2022-08-28T20:02:45.085Z,7.95
2022-08-28T20:05:11.951Z,8.85
2022-08-28T20:07:38.645Z,6.03
2022-08-28T20:10:06.389Z,7.47
2022-08-28T20:12:34.102Z,7.63
2022-08-28T20:15:03.597Z,10.32
2022-08-28T20:17:30.675Z,9.10
2022-08-28T20:20:02.332Z,9.88
2022-08-28T20:22:29.713Z,7.80
2022-08-28T20:24:56.362Z,8.25
2022-08-28T20:27:22.920Z,7.95
2022-08-28T20:29:49.608Z,9.27
2022-08-28T20:32:16.281Z,7.45
2022-08-28T20:34:44.580Z,8.23
2022-08-28T20:37:11.721Z,9.85
2022-08-28T20:39:41.438Z,8.10
2022-08-28T20:42:09.424Z,8.13
2022-08-28T20:44:37.814Z,10.65
2022-08-28T20:47:05.414Z,7.45
2022-08-28T20:49:32.323Z,10.25
2022-08-28T20:54:37.475Z,7.90
2022-08-28T20:57:07.924Z,9.80
2022-08-28T20:59:40.024Z,8.35
2022-08-28T21:02:14.991Z,8.73
2022-08-28T21:04:43.655Z,8.48
2022-08-28T21:07:11.458Z,8.57
2022-08-28T21:10:02.204Z,6.15
2022-08-28T21:12:25.614Z,6.72
2022-08-28T21:14:52.881Z,9.57
2022-08-28T21:17:20.863Z,6.93
2022-08-28T21:19:58.477Z,10.25
2022-08-28T21:22:25.076Z,8.75
2022-08-28T21:24:52.443Z,12.02
2022-08-28T21:27:21.033Z,8.93
2022-08-28T21:29:47.981Z,10.43
2022-08-28T21:32:14.972Z,9.55
2022-08-28T21:34:41.653Z,8.25
2022-08-28T21:37:08.262Z,8.38
2022-08-28T21:39:35.219Z,10.55
2022-08-28T21:42:02.158Z,7.53
2022-08-28T21:44:28.978Z,8.23
2022-08-28T21:46:55.632Z,8.20
2022-08-28T21:49:23.005Z,6.40
2022-08-28T21:51:50.575Z,9.38
2022-08-28T21:54:19.446Z,7.70
2022-08-28T21:56:46.255Z,8.35
2022-08-28T21:59:14.793Z,8.60
2022-08-28T22:01:43.803Z,9.18
2022-08-28T22:04:10.701Z,7.60
2022-08-28T22:06:37.347Z,8.38
2022-08-28T22:09:04.875Z,9.35
2022-08-28T22:11:31.696Z,8.85
2022-08-28T22:13:58.255Z,6.68
2022-08-28T22:16:26.777Z,11.38
2022-08-28T22:18:54.244Z,9.20
2022-08-28T22:21:44.073Z,11.75
2022-08-28T22:24:11.725Z,11.57
2022-08-28T22:26:38.410Z,8.88
2022-08-28T22:29:05.903Z,12.45
2022-08-28T22:31:32.627Z,10.15
2022-08-28T22:33:59.254Z,10.63
2022-08-28T22:36:29.179Z,11.15
2022-08-28T22:38:58.316Z,12.05
2022-08-28T22:41:25.305Z,11.38
2022-08-28T22:43:53.073Z,9.55
2022-08-28T22:46:20.692Z,14.23
2022-08-28T22:48:53.420Z,8.60
2022-08-28T22:51:20.789Z,7.95
2022-08-28T22:53:48.186Z,10.93
2022-08-28T22:56:17.101Z,8.88
2022-08-28T22:58:44.038Z,10.00
2022-08-28T23:01:22.553Z,11.27
2022-08-28T23:03:49.866Z,12.50
2022-08-28T23:06:16.813Z,17.88
2022-08-28T23:08:43.460Z,10.20
2022-08-28T23:11:11.083Z,13.85
2022-08-28T23:13:38.311Z,9.32
2022-08-28T23:16:05.956Z,16.30
2022-08-28T23:18:46.279Z,13.05
2022-08-28T23:21:23.676Z,12.00
2022-08-28T23:23:53.489Z,10.63
2022-08-28T23:26:20.233Z,15.02
2022-08-28T23:28:46.972Z,14.98
2022-08-28T23:31:13.972Z,16.23
2022-08-28T23:33:41.037Z,13.57
2022-08-28T23:36:08.025Z,12.57
2022-08-28T23:38:38.953Z,9.20
2022-08-28T23:41:08.009Z,13.45
2022-08-28T23:43:35.071Z,11.20
2022-08-28T23:46:01.915Z,11.02
2022-08-28T23:48:29.169Z,13.65
2022-08-28T23:50:55.909Z,11.43
2022-08-28T23:53:22.553Z,11.27
2022-08-28T23:55:49.798Z,11.05
2022-08-28T23:58:20.712Z,14.32
